Fayetteville Regional Grannis Field Fayetteville US
ICAO: KFAY
IATA: FAY
Category: Medium
Scheduled Services: Yes

Elevation: 189 ft
TransAlt. 18000 ft.

Airport Communications:
APP/DEP:125.175
ATIS:121.25
GND:121.7
RALEIGH RDO:25.54
TWR:118.3
UNICOM:122.95

KFAY Zoom In..

Runways:

(A) RW 04 length 7709 ft width 150 ft
ILS 110.50 / hdg 38

(B) RW 10 length 4801 ft width 150 ft
---- / hdg 98

(C) RW 22 length 7709 ft width 150 ft
---- / hdg 218

(D) RW 28 length 4801 ft width 150 ft
---- / hdg 278

Location; KFAY
Day. 19 / Time. 20.53 Zulu
* Altimeter: 29.87
* Temperature: 24° c. 75.2°f.
* Wind from: 330° Speed 22 kn with Gusts up to 30 kn.
Dewpoint: 03° c.
Visibility: 10 Statute Miles.
Clouds: Scattered 8500 ft.

KFAY 192053Z 33022G30KT 10SM SCT085 24/03 A2987 RMK AO2 PK WND 32033/2025 SLP109 T02440033 53024


Wind From 330°
Speed 22 kn.

  YouTube Music Video
 
jpsmedia.com for Web Design  worldairports.se 2018   terms of use